Terminal Aerodrome Forecast
Issued by NWS Raleigh/Durham, NC

Home | Current Version | Previous Version | Text Only | Print | Product List | Glossary On
Versions: 1 2 3 4 5 6 7 8 9 10 11 12 13 14 15 16 17 18 19 20 21 22 23
000
FTUS42 KRAH 220537
TAFRDU
TAF
KRDU 220537Z 2206/2306 00000KT 1/4SM FG VV002
     FM221200 VRB03KT 2SM BR OVC004
      TEMPO 2212/2216 2SM SHRA OVC010
     FM221600 16010KT P6SM BKN012
     FM222000 20012KT P6SM VCSH BKN012 PROB30 2223/2303 17015G35KT
      1SM +TSRA OVC010CB=

USA.gov is the U.S. government's official web portal to all federal, state and local government web resources and services.